KSF weather

Kassel-Calden Airport
Kassel, Hesse, Germany

Public forecast

Using degrees Celsius for public forecast. Weather courtesy of forecast.io.

METAR (pilot weather report)

Retrieved 2019/07/18 10:20 UTC (11 minutes ago):

EDVK 181020Z 12006KT 9999 SCT033 21/13 Q1012

TAF (pilot weather forecast)

Forecast is more than 12 hours old.

Retrieved 2011/03/23 07:09 UTC (8 years ago):

TAF COR EDVK 230655Z 2307/2321 30002KT 3500 BR SCT025 PROB30 TEMPO 2307/2309 1400 BCFG BECMG 2307/2310 01007KT 8000